AirNav   ATP
 
 1063 users online  

1M2 Belzoni Municipal Airport
Belzoni, Mississippi, USA


FAA INFORMATION EFFECTIVE 04 JANUARY 2018

Location

FAA Identifier: 1M2
Lat/Long: 33-08-42.6500N / 090-30-55.0250W
33-08.710833N / 090-30.917083W
33.1451806 / -90.5152847
(estimated)
Elevation: 110 ft. / 33.5 m (surveyed)
Variation: 03E (1985)
From city: 3 miles SW of BELZONI, MS
Time zone: UTC -6 (UTC -5 during Daylight Saving Time)
Zip code: 39038

Airport Operations

Airport use: Open to the public
Activation date: 09/1965
Control tower: no
ARTCC: MEMPHIS CENTER
FSS: GREENWOOD FLIGHT SERVICE STATION
NOTAMs facility: GWO (NOTAM-D service available)
Attendance: UNATNDD
ARPT CLSD AT NIGHT.
Pattern altitude: 1210 ft. MSL
Wind indicator: lighted
Segmented circle: no
Lights: MIRL RY 03/21 PRESET LOW INTST; HIGHER INTST ACTVT-CTAF.
Beacon: white-green (lighted land airport)
Operates sunset to sunrise.

Airport Communications

CTAF: 122.9

Nearby radio navigation aids

VOR radial/distance  VOR name  Freq  Var
SQSr209/22.5SIDON VORTAC114.7003E
GLHr130/32.6GREENVILLE VOR/DME110.2004E

 
NDB name  Hdg/Dist  Freq  Var  ID
METCALF127/28.835901WMTQ -- - --.-

Airport Services

Parking: tiedowns
Airframe service: NONE
Powerplant service: NONE
Bottled oxygen: NONE
Bulk oxygen: NONE

Runway Information

Runway 3/21

Dimensions: 3000 x 50 ft. / 914 x 15 m
Surface: asphalt, in excellent condition
Weight bearing capacity: 
Single wheel: 24.0
Runway edge lights: medium intensity
RUNWAY 3  RUNWAY 21
Latitude: 33-08.500850N33-08.922433N
Longitude: 090-31.070000W090-30.762633W
Elevation: 109.0 ft.109.0 ft.
Traffic pattern: leftleft
Runway heading: 029 magnetic, 032 true209 magnetic, 212 true
Markings: basic, in good conditionbasic, in good condition
Visual slope indicator: 2-light PAPI on left (3.00 degrees glide path)2-light PAPI on left (3.00 degrees glide path)
Obstructions: 28 ft. pline, marked, 1400 ft. from runway, 25 ft. left of centerline, 42:1 slope to clearnone

Airport Ownership and Management from official FAA records

Ownership: Publicly-owned
Owner: CITY OF BELZONI
PO BOX 674
BELZONI, MS 39038
Phone 662-247-1343
Manager: JOHNNY PURVIS
1782 STATE HIGHWAY 7
BELZONI, MS 39038
Phone 662-836-8216
AG OPER 662-247-4829, 662-247-0056, OR 662-247-3737.

Airport Operational Statistics

Aircraft based on the field: 10
Single engine airplanes: 10
    
Aircraft operations: avg 36/day *
92% local general aviation
8% transient general aviation
* for 12-month period ending 02 February 2017

Instrument Procedures

There are no published instrument procedures at 1M2.

Some nearby airports with instrument procedures:

87I - Yazoo County Airport (16 nm S)
KIDL - Indianola Municipal Airport (22 nm N)
19M - C A Moore Airport (25 nm E)
KGWO - Greenwood-Leflore Airport (30 nm NE)
KGLH - Greenville Mid-Delta Airport (31 nm NW)
 
Loc | Ops | Rwys | IFR | FBO | Links
Com | Nav | Svcs | Stats | Notes


 
Area around 1M2 (Belzoni Municipal Airport)
 
Road maps at: MapQuest Bing Google
 
Aerial photo
WARNING: Photo may not be current or correct
Aerial photo of 1M2 (Belzoni Municipal Airport)
Photo taken 18-Jan-2016
looking southwest.

Do you have a better or more recent aerial photo of Belzoni Municipal Airport that you would like to share? If so, please send us your photo.

 
Sectional chart

 
Airport distance calculator
Flying to Belzoni Municipal Airport? Find the distance to fly.

From to 1M2

Sunrise and sunset
Times for 23-Jan-2018
 Local
(UTC-6)
 Zulu
(UTC)
Morning civil twilight06:3712:37
Sunrise07:0413:04
Sunset17:2423:24
Evening civil twilight17:5123:51

Current date and time
Zulu (UTC)  24-Jan-2018 00:55:36
Local (UTC-6)  23-Jan-2018 18:55:36
 
METAR
KGWO 
30nm NE 
232353Z AUTO 35004KT 10SM CLR 09/01 A3023 RMK AO2 SLP237 T00890011 10122 20089 53022
KGLH 
32nm NW 
232353Z 34006KT 10SM CLR 08/01 A3023 RMK AO2 SLP245 T00780006 10128 20078 53020
KRNV 
39nm N 
240035Z AUTO 01007KT 10SM CLR 07/02 A3025 RMK AO2 T00690023
K5A6 
44nm NE 
240035Z AUTO 35003KT 10SM CLR 07/00 A3024 RMK AO2 T00690004
KMBO 
47nm SE 
240035Z AUTO 00000KT 10SM CLR 08/00 A3023 RMK AO2 PWINO
TAF
KGWO 
30nm NE 
231720Z 2318/2418 30009KT P6SM SKC FM232300 31005KT P6SM SKC
KGLH 
32nm NW 
231720Z 2318/2418 30011KT P6SM SKC FM232300 32007KT P6SM SKC
NOTAMs
Click for the latest NOTAMs
NOTAMs are issued by the DoD/FAA and will open in a separate window not controlled by AirNav.

 

 
 

Would you like to see your business listed on this page?

 If your business provides an interesting product or service to pilots, flight crews, aircraft, or users of the Belzoni Municipal Airport, you should consider listing it here.  To start the listing process, click on the button below
 
Add a business
 

Other Pages about Belzoni Municipal Airport

Update a link
 
Copyright © AirNav, LLC. All rights reserved. Privacy Policy  Contact